sensor_id;sensor_type;location;lat;lon;timestamp;P1;durP1;ratioP1;P2;durP2;ratioP2
67274;SDS011;55463;52.324;5.122;2022-09-09T00:03:44;0.88;;;0.85;;
67274;SDS011;55463;52.324;5.122;2022-09-09T00:06:30;1.15;;;1.00;;
67274;SDS011;55463;52.324;5.122;2022-09-09T00:09:01;7.03;;;1.38;;
67274;SDS011;55463;52.324;5.122;2022-09-09T00:14:36;1.15;;;0.90;;
67274;SDS011;55463;52.324;5.122;2022-09-09T00:17:36;4.93;;;1.25;;
67274;SDS011;55463;52.324;5.122;2022-09-09T00:22:57;4.45;;;1.10;;
67274;SDS011;55463;52.324;5.122;2022-09-09T00:25:30;1.35;;;1.25;;
67274;SDS011;55463;52.324;5.122;2022-09-09T00:28:18;1.75;;;1.35;;
67274;SDS011;55463;52.324;5.122;2022-09-09T00:30:45;1.73;;;1.00;;
67274;SDS011;55463;52.324;5.122;2022-09-09T00:33:15;2.30;;;1.45;;
67274;SDS011;55463;52.324;5.122;2022-09-09T00:35:48;4.47;;;1.58;;
67274;SDS011;55463;52.324;5.122;2022-09-09T00:38:27;3.17;;;1.80;;
67274;SDS011;55463;52.324;5.122;2022-09-09T00:41:03;6.53;;;1.95;;
67274;SDS011;55463;52.324;5.122;2022-09-09T00:43:33;4.50;;;1.50;;
67274;SDS011;55463;52.324;5.122;2022-09-09T00:51:46;4.70;;;1.85;;
67274;SDS011;55463;52.324;5.122;2022-09-09T00:54:31;1.88;;;1.70;;
67274;SDS011;55463;52.324;5.122;2022-09-09T01:02:27;7.93;;;2.50;;
67274;SDS011;55463;52.324;5.122;2022-09-09T01:04:55;6.00;;;2.15;;
67274;SDS011;55463;52.324;5.122;2022-09-09T01:07:30;6.75;;;2.75;;
67274;SDS011;55463;52.324;5.122;2022-09-09T01:09:57;7.57;;;2.45;;
67274;SDS011;55463;52.324;5.122;2022-09-09T01:15:12;6.38;;;2.50;;
67274;SDS011;55463;52.324;5.122;2022-09-09T01:20:37;4.68;;;2.60;;
67274;SDS011;55463;52.324;5.122;2022-09-09T01:23:19;5.78;;;2.97;;
67274;SDS011;55463;52.324;5.122;2022-09-09T01:26:04;6.75;;;2.58;;
67274;SDS011;55463;52.324;5.122;2022-09-09T01:28:55;9.15;;;2.65;;
67274;SDS011;55463;52.324;5.122;2022-09-09T01:31:28;7.10;;;2.50;;
67274;SDS011;55463;52.324;5.122;2022-09-09T01:33:57;4.57;;;2.53;;
67274;SDS011;55463;52.324;5.122;2022-09-09T01:36:31;10.20;;;3.08;;
67274;SDS011;55463;52.324;5.122;2022-09-09T01:39:02;9.32;;;3.08;;
67274;SDS011;55463;52.324;5.122;2022-09-09T01:41:28;7.70;;;3.47;;
67274;SDS011;55463;52.324;5.122;2022-09-09T01:43:54;5.85;;;2.88;;
67274;SDS011;55463;52.324;5.122;2022-09-09T01:46:21;8.82;;;3.28;;
67274;SDS011;55463;52.324;5.122;2022-09-09T01:48:47;9.98;;;3.45;;
67274;SDS011;55463;52.324;5.122;2022-09-09T01:51:13;8.63;;;3.58;;
67274;SDS011;55463;52.324;5.122;2022-09-09T01:53:39;5.55;;;3.65;;
67274;SDS011;55463;52.324;5.122;2022-09-09T02:04:44;6.30;;;3.35;;
67274;SDS011;55463;52.324;5.122;2022-09-09T02:10:20;8.25;;;3.92;;
67274;SDS011;55463;52.324;5.122;2022-09-09T02:12:55;9.95;;;3.83;;
67274;SDS011;55463;52.324;5.122;2022-09-09T02:15:27;8.70;;;3.75;;
67274;SDS011;55463;52.324;5.122;2022-09-09T02:18:03;8.60;;;3.60;;
67274;SDS011;55463;52.324;5.122;2022-09-09T02:20:33;4.68;;;3.60;;
67274;SDS011;55463;52.324;5.122;2022-09-09T02:23:01;5.85;;;4.05;;
67274;SDS011;55463;52.324;5.122;2022-09-09T02:25:28;9.80;;;4.60;;
67274;SDS011;55463;52.324;5.122;2022-09-09T02:27:54;7.55;;;4.30;;
67274;SDS011;55463;52.324;5.122;2022-09-09T02:30:23;7.35;;;4.13;;
67274;SDS011;55463;52.324;5.122;2022-09-09T02:32:48;8.25;;;4.30;;
67274;SDS011;55463;52.324;5.122;2022-09-09T02:35:21;7.70;;;4.28;;
67274;SDS011;55463;52.324;5.122;2022-09-09T02:37:49;8.20;;;3.97;;
67274;SDS011;55463;52.324;5.122;2022-09-09T02:40:18;9.43;;;4.30;;
67274;SDS011;55463;52.324;5.122;2022-09-09T02:42:45;8.95;;;4.10;;
67274;SDS011;55463;52.324;5.122;2022-09-09T02:45:12;9.13;;;4.43;;
67274;SDS011;55463;52.324;5.122;2022-09-09T02:50:17;8.55;;;4.50;;
67274;SDS011;55463;52.324;5.122;2022-09-09T02:56:27;9.00;;;4.25;;
67274;SDS011;55463;52.324;5.122;2022-09-09T02:58:34;10.00;;;4.78;;
67274;SDS011;55463;52.324;5.122;2022-09-09T03:01:00;7.50;;;4.60;;
67274;SDS011;55463;52.324;5.122;2022-09-09T03:03:27;8.43;;;5.00;;
67274;SDS011;55463;52.324;5.122;2022-09-09T03:05:54;8.73;;;4.80;;
67274;SDS011;55463;52.324;5.122;2022-09-09T03:08:19;8.68;;;5.45;;
67274;SDS011;55463;52.324;5.122;2022-09-09T03:10:45;7.60;;;5.18;;
67274;SDS011;55463;52.324;5.122;2022-09-09T03:13:10;10.23;;;5.63;;
67274;SDS011;55463;52.324;5.122;2022-09-09T03:15:37;7.95;;;5.30;;
67274;SDS011;55463;52.324;5.122;2022-09-09T03:18:03;9.85;;;5.85;;
67274;SDS011;55463;52.324;5.122;2022-09-09T03:20:28;10.48;;;5.90;;
67274;SDS011;55463;52.324;5.122;2022-09-09T03:22:55;13.55;;;6.50;;
67274;SDS011;55463;52.324;5.122;2022-09-09T03:25:21;7.80;;;5.78;;
67274;SDS011;55463;52.324;5.122;2022-09-09T03:27:50;11.30;;;6.07;;
67274;SDS011;55463;52.324;5.122;2022-09-09T03:30:19;8.48;;;5.57;;
67274;SDS011;55463;52.324;5.122;2022-09-09T03:32:48;11.23;;;5.90;;
67274;SDS011;55463;52.324;5.122;2022-09-09T03:35:14;12.60;;;5.88;;
67274;SDS011;55463;52.324;5.122;2022-09-09T03:37:40;11.90;;;5.93;;
67274;SDS011;55463;52.324;5.122;2022-09-09T03:40:06;9.15;;;6.63;;
67274;SDS011;55463;52.324;5.122;2022-09-09T03:42:34;11.55;;;5.90;;
67274;SDS011;55463;52.324;5.122;2022-09-09T03:45:01;10.23;;;5.63;;
67274;SDS011;55463;52.324;5.122;2022-09-09T03:47:28;9.88;;;5.95;;
67274;SDS011;55463;52.324;5.122;2022-09-09T03:49:54;10.20;;;5.80;;
67274;SDS011;55463;52.324;5.122;2022-09-09T03:52:19;8.80;;;5.40;;
67274;SDS011;55463;52.324;5.122;2022-09-09T03:54:46;10.25;;;5.90;;
67274;SDS011;55463;52.324;5.122;2022-09-09T03:57:12;9.98;;;5.20;;
67274;SDS011;55463;52.324;5.122;2022-09-09T03:59:41;6.65;;;4.88;;
67274;SDS011;55463;52.324;5.122;2022-09-09T04:02:07;12.25;;;5.63;;
67274;SDS011;55463;52.324;5.122;2022-09-09T04:04:32;9.40;;;5.18;;
67274;SDS011;55463;52.324;5.122;2022-09-09T04:06:57;10.50;;;5.07;;
67274;SDS011;55463;52.324;5.122;2022-09-09T04:09:23;7.63;;;4.45;;
67274;SDS011;55463;52.324;5.122;2022-09-09T04:11:48;10.20;;;5.57;;
67274;SDS011;55463;52.324;5.122;2022-09-09T04:14:14;6.68;;;4.45;;
67274;SDS011;55463;52.324;5.122;2022-09-09T04:16:39;9.80;;;4.93;;
67274;SDS011;55463;52.324;5.122;2022-09-09T04:19:09;7.10;;;4.80;;
67274;SDS011;55463;52.324;5.122;2022-09-09T04:21:37;14.43;;;5.07;;
67274;SDS011;55463;52.324;5.122;2022-09-09T04:24:04;10.98;;;4.93;;
67274;SDS011;55463;52.324;5.122;2022-09-09T04:26:30;10.95;;;5.03;;
67274;SDS011;55463;52.324;5.122;2022-09-09T04:28:56;9.52;;;5.05;;
67274;SDS011;55463;52.324;5.122;2022-09-09T04:31:22;6.85;;;4.25;;
67274;SDS011;55463;52.324;5.122;2022-09-09T04:33:48;7.05;;;4.38;;
67274;SDS011;55463;52.324;5.122;2022-09-09T04:36:14;11.13;;;4.50;;
67274;SDS011;55463;52.324;5.122;2022-09-09T04:38:39;9.15;;;4.70;;
67274;SDS011;55463;52.324;5.122;2022-09-09T04:41:05;9.77;;;4.28;;
67274;SDS011;55463;52.324;5.122;2022-09-09T04:43:31;5.25;;;3.95;;
67274;SDS011;55463;52.324;5.122;2022-09-09T04:45:57;7.72;;;4.40;;
67274;SDS011;55463;52.324;5.122;2022-09-09T04:48:24;9.80;;;4.40;;
67274;SDS011;55463;52.324;5.122;2022-09-09T04:50:53;9.65;;;4.43;;
67274;SDS011;55463;52.324;5.122;2022-09-09T04:53:20;7.88;;;4.45;;
67274;SDS011;55463;52.324;5.122;2022-09-09T04:55:45;9.23;;;3.85;;
67274;SDS011;55463;52.324;5.122;2022-09-09T04:58:11;5.18;;;3.95;;
67274;SDS011;55463;52.324;5.122;2022-09-09T05:00:36;6.10;;;4.10;;
67274;SDS011;55463;52.324;5.122;2022-09-09T05:03:03;8.63;;;3.60;;
67274;SDS011;55463;52.324;5.122;2022-09-09T05:05:30;7.63;;;4.07;;
67274;SDS011;55463;52.324;5.122;2022-09-09T05:08:00;8.18;;;3.83;;
67274;SDS011;55463;52.324;5.122;2022-09-09T05:10:36;6.80;;;4.03;;
67274;SDS011;55463;52.324;5.122;2022-09-09T05:13:03;6.28;;;3.30;;
67274;SDS011;55463;52.324;5.122;2022-09-09T05:15:29;8.70;;;3.83;;
67274;SDS011;55463;52.324;5.122;2022-09-09T05:17:58;8.60;;;3.75;;
67274;SDS011;55463;52.324;5.122;2022-09-09T05:20:25;5.13;;;3.35;;
67274;SDS011;55463;52.324;5.122;2022-09-09T05:22:55;8.32;;;3.67;;
67274;SDS011;55463;52.324;5.122;2022-09-09T05:25:21;7.13;;;3.85;;
67274;SDS011;55463;52.324;5.122;2022-09-09T05:27:47;6.43;;;3.65;;
67274;SDS011;55463;52.324;5.122;2022-09-09T05:30:12;8.13;;;4.07;;
67274;SDS011;55463;52.324;5.122;2022-09-09T05:32:37;8.70;;;3.22;;
67274;SDS011;55463;52.324;5.122;2022-09-09T05:35:03;9.38;;;3.20;;
67274;SDS011;55463;52.324;5.122;2022-09-09T05:37:30;6.30;;;3.25;;
67274;SDS011;55463;52.324;5.122;2022-09-09T05:39:56;7.88;;;3.50;;
67274;SDS011;55463;52.324;5.122;2022-09-09T05:42:21;11.85;;;4.07;;
67274;SDS011;55463;52.324;5.122;2022-09-09T05:44:46;7.53;;;3.30;;
67274;SDS011;55463;52.324;5.122;2022-09-09T05:47:12;6.35;;;3.10;;
67274;SDS011;55463;52.324;5.122;2022-09-09T05:49:37;7.63;;;3.58;;
67274;SDS011;55463;52.324;5.122;2022-09-09T05:52:02;8.82;;;3.78;;
67274;SDS011;55463;52.324;5.122;2022-09-09T05:54:28;9.70;;;3.70;;
67274;SDS011;55463;52.324;5.122;2022-09-09T05:56:54;10.30;;;2.97;;
67274;SDS011;55463;52.324;5.122;2022-09-09T05:59:20;8.75;;;3.30;;
67274;SDS011;55463;52.324;5.122;2022-09-09T06:01:45;5.78;;;3.25;;
67274;SDS011;55463;52.324;5.122;2022-09-09T06:04:11;8.55;;;3.30;;
67274;SDS011;55463;52.324;5.122;2022-09-09T06:06:37;8.32;;;3.38;;
67274;SDS011;55463;52.324;5.122;2022-09-09T06:09:05;9.40;;;3.42;;
67274;SDS011;55463;52.324;5.122;2022-09-09T06:11:34;9.73;;;3.17;;
67274;SDS011;55463;52.324;5.122;2022-09-09T06:14:01;6.30;;;3.42;;
67274;SDS011;55463;52.324;5.122;2022-09-09T06:16:28;7.90;;;3.35;;
67274;SDS011;55463;52.324;5.122;2022-09-09T06:18:55;6.90;;;2.92;;
67274;SDS011;55463;52.324;5.122;2022-09-09T06:21:25;8.65;;;3.47;;
67274;SDS011;55463;52.324;5.122;2022-09-09T06:26:19;5.32;;;2.85;;
67274;SDS011;55463;52.324;5.122;2022-09-09T06:28:46;6.30;;;3.13;;
67274;SDS011;55463;52.324;5.122;2022-09-09T06:31:13;12.50;;;3.25;;
67274;SDS011;55463;52.324;5.122;2022-09-09T06:33:42;8.77;;;2.90;;
67274;SDS011;55463;52.324;5.122;2022-09-09T06:36:13;11.00;;;3.30;;
67274;SDS011;55463;52.324;5.122;2022-09-09T06:38:40;13.60;;;3.90;;
67274;SDS011;55463;52.324;5.122;2022-09-09T06:41:06;5.43;;;2.78;;
67274;SDS011;55463;52.324;5.122;2022-09-09T06:43:32;7.85;;;3.08;;
67274;SDS011;55463;52.324;5.122;2022-09-09T06:45:59;11.20;;;2.97;;
67274;SDS011;55463;52.324;5.122;2022-09-09T06:48:26;10.90;;;3.40;;
67274;SDS011;55463;52.324;5.122;2022-09-09T06:53:36;10.13;;;3.25;;
67274;SDS011;55463;52.324;5.122;2022-09-09T06:56:17;10.13;;;2.83;;
67274;SDS011;55463;52.324;5.122;2022-09-09T06:58:48;8.18;;;2.80;;
67274;SDS011;55463;52.324;5.122;2022-09-09T07:01:15;4.82;;;2.50;;
67274;SDS011;55463;52.324;5.122;2022-09-09T07:03:42;12.85;;;2.65;;
67274;SDS011;55463;52.324;5.122;2022-09-09T07:06:16;7.80;;;3.00;;
67274;SDS011;55463;52.324;5.122;2022-09-09T07:08:52;8.05;;;2.90;;
67274;SDS011;55463;52.324;5.122;2022-09-09T07:11:19;9.93;;;2.70;;
67274;SDS011;55463;52.324;5.122;2022-09-09T07:13:45;13.40;;;3.20;;
67274;SDS011;55463;52.324;5.122;2022-09-09T07:16:13;6.47;;;2.88;;
67274;SDS011;55463;52.324;5.122;2022-09-09T07:21:12;6.38;;;2.47;;
67274;SDS011;55463;52.324;5.122;2022-09-09T07:23:39;7.22;;;2.63;;
67274;SDS011;55463;52.324;5.122;2022-09-09T07:26:09;11.13;;;2.47;;
67274;SDS011;55463;52.324;5.122;2022-09-09T07:28:42;7.72;;;2.75;;
67274;SDS011;55463;52.324;5.122;2022-09-09T07:31:15;16.55;;;3.38;;
67274;SDS011;55463;52.324;5.122;2022-09-09T07:33:42;9.90;;;2.97;;
67274;SDS011;55463;52.324;5.122;2022-09-09T07:36:09;10.57;;;2.60;;
67274;SDS011;55463;52.324;5.122;2022-09-09T07:38:38;19.85;;;3.03;;
67274;SDS011;55463;52.324;5.122;2022-09-09T07:41:05;11.52;;;2.90;;
67274;SDS011;55463;52.324;5.122;2022-09-09T07:43:37;6.30;;;2.90;;
67274;SDS011;55463;52.324;5.122;2022-09-09T07:46:04;7.45;;;3.13;;
67274;SDS011;55463;52.324;5.122;2022-09-09T07:48:31;11.65;;;3.38;;
67274;SDS011;55463;52.324;5.122;2022-09-09T07:51:13;7.82;;;3.45;;
67274;SDS011;55463;52.324;5.122;2022-09-09T07:53:45;13.40;;;3.58;;
67274;SDS011;55463;52.324;5.122;2022-09-09T07:56:12;13.57;;;3.25;;
67274;SDS011;55463;52.324;5.122;2022-09-09T07:58:42;10.52;;;3.35;;
67274;SDS011;55463;52.324;5.122;2022-09-09T08:01:30;13.32;;;3.65;;
67274;SDS011;55463;52.324;5.122;2022-09-09T08:04:00;11.95;;;3.35;;
67274;SDS011;55463;52.324;5.122;2022-09-09T08:06:31;9.73;;;3.22;;
67274;SDS011;55463;52.324;5.122;2022-09-09T08:09:00;9.43;;;3.27;;
67274;SDS011;55463;52.324;5.122;2022-09-09T08:11:26;10.95;;;3.65;;
67274;SDS011;55463;52.324;5.122;2022-09-09T08:13:53;11.27;;;3.28;;
67274;SDS011;55463;52.324;5.122;2022-09-09T08:16:27;8.40;;;3.40;;
67274;SDS011;55463;52.324;5.122;2022-09-09T08:18:55;8.30;;;3.35;;
67274;SDS011;55463;52.324;5.122;2022-09-09T08:21:22;13.18;;;3.50;;
67274;SDS011;55463;52.324;5.122;2022-09-09T08:23:50;9.95;;;3.50;;
67274;SDS011;55463;52.324;5.122;2022-09-09T08:26:18;12.32;;;3.53;;
67274;SDS011;55463;52.324;5.122;2022-09-09T08:28:47;12.70;;;3.37;;
67274;SDS011;55463;52.324;5.122;2022-09-09T08:31:36;12.82;;;3.15;;
67274;SDS011;55463;52.324;5.122;2022-09-09T08:34:02;9.15;;;3.33;;
67274;SDS011;55463;52.324;5.122;2022-09-09T08:36:29;9.52;;;3.20;;
67274;SDS011;55463;52.324;5.122;2022-09-09T08:38:58;9.75;;;2.90;;
67274;SDS011;55463;52.324;5.122;2022-09-09T08:43:58;9.43;;;3.45;;
67274;SDS011;55463;52.324;5.122;2022-09-09T08:52:13;8.68;;;3.15;;
67274;SDS011;55463;52.324;5.122;2022-09-09T08:54:52;9.05;;;2.88;;
67274;SDS011;55463;52.324;5.122;2022-09-09T08:57:26;8.45;;;2.80;;
67274;SDS011;55463;52.324;5.122;2022-09-09T08:59:54;12.07;;;3.08;;
67274;SDS011;55463;52.324;5.122;2022-09-09T09:02:26;7.55;;;2.83;;
67274;SDS011;55463;52.324;5.122;2022-09-09T09:05:04;7.72;;;2.80;;
67274;SDS011;55463;52.324;5.122;2022-09-09T09:12:57;8.82;;;2.90;;
67274;SDS011;55463;52.324;5.122;2022-09-09T09:15:25;7.13;;;2.90;;
67274;SDS011;55463;52.324;5.122;2022-09-09T09:17:55;7.13;;;2.85;;
67274;SDS011;55463;52.324;5.122;2022-09-09T09:20:23;9.50;;;2.95;;
67274;SDS011;55463;52.324;5.122;2022-09-09T09:25:31;9.68;;;2.60;;
67274;SDS011;55463;52.324;5.122;2022-09-09T09:28:17;9.15;;;2.60;;
67274;SDS011;55463;52.324;5.122;2022-09-09T09:30:49;11.75;;;3.17;;
67274;SDS011;55463;52.324;5.122;2022-09-09T09:35:49;9.75;;;2.67;;
67274;SDS011;55463;52.324;5.122;2022-09-09T09:38:16;9.43;;;2.40;;
67274;SDS011;55463;52.324;5.122;2022-09-09T09:40:50;9.13;;;2.58;;
67274;SDS011;55463;52.324;5.122;2022-09-09T09:43:31;11.55;;;2.70;;
67274;SDS011;55463;52.324;5.122;2022-09-09T09:46:05;5.68;;;2.17;;
67274;SDS011;55463;52.324;5.122;2022-09-09T09:48:42;8.35;;;2.63;;
67274;SDS011;55463;52.324;5.122;2022-09-09T09:51:09;10.82;;;2.88;;
67274;SDS011;55463;52.324;5.122;2022-09-09T09:53:38;10.40;;;2.67;;
67274;SDS011;55463;52.324;5.122;2022-09-09T09:56:11;8.35;;;2.60;;
67274;SDS011;55463;52.324;5.122;2022-09-09T10:01:24;9.73;;;2.72;;
67274;SDS011;55463;52.324;5.122;2022-09-09T10:04:14;9.57;;;2.40;;
67274;SDS011;55463;52.324;5.122;2022-09-09T10:06:44;9.93;;;2.55;;
67274;SDS011;55463;52.324;5.122;2022-09-09T10:09:25;7.80;;;2.45;;
67274;SDS011;55463;52.324;5.122;2022-09-09T10:11:59;10.13;;;2.35;;
67274;SDS011;55463;52.324;5.122;2022-09-09T10:20:04;13.43;;;2.40;;
67274;SDS011;55463;52.324;5.122;2022-09-09T10:22:52;11.38;;;3.60;;
67274;SDS011;55463;52.324;5.122;2022-09-09T10:37:54;10.93;;;2.40;;
67274;SDS011;55463;52.324;5.122;2022-09-09T10:40:15;7.25;;;1.80;;
67274;SDS011;55463;52.324;5.122;2022-09-09T10:42:53;11.95;;;1.92;;
67274;SDS011;55463;52.324;5.122;2022-09-09T10:45:32;7.50;;;2.03;;
67274;SDS011;55463;52.324;5.122;2022-09-09T10:48:22;7.70;;;2.20;;
67274;SDS011;55463;52.324;5.122;2022-09-09T10:56:08;10.23;;;2.53;;
67274;SDS011;55463;52.324;5.122;2022-09-09T11:01:25;10.45;;;2.38;;
67274;SDS011;55463;52.324;5.122;2022-09-09T11:03:57;6.72;;;2.42;;
67274;SDS011;55463;52.324;5.122;2022-09-09T11:09:04;8.40;;;2.47;;
67274;SDS011;55463;52.324;5.122;2022-09-09T11:11:36;6.72;;;2.05;;
67274;SDS011;55463;52.324;5.122;2022-09-09T11:14:20;7.70;;;2.03;;
67274;SDS011;55463;52.324;5.122;2022-09-09T11:17:06;4.78;;;2.10;;
67274;SDS011;55463;52.324;5.122;2022-09-09T11:19:45;11.77;;;2.30;;
67274;SDS011;55463;52.324;5.122;2022-09-09T11:24:53;10.77;;;2.78;;
67274;SDS011;55463;52.324;5.122;2022-09-09T11:32:56;5.97;;;2.15;;
67274;SDS011;55463;52.324;5.122;2022-09-09T11:35:53;7.22;;;1.92;;
67274;SDS011;55463;52.324;5.122;2022-09-09T11:41:06;6.15;;;2.00;;
67274;SDS011;55463;52.324;5.122;2022-09-09T11:43:45;7.45;;;1.98;;
67274;SDS011;55463;52.324;5.122;2022-09-09T11:46:17;8.52;;;1.98;;
67274;SDS011;55463;52.324;5.122;2022-09-09T11:48:45;6.00;;;2.15;;
67274;SDS011;55463;52.324;5.122;2022-09-09T11:51:26;6.22;;;2.30;;
67274;SDS011;55463;52.324;5.122;2022-09-09T11:53:54;6.22;;;2.30;;
67274;SDS011;55463;52.324;5.122;2022-09-09T11:59:28;7.45;;;2.00;;
67274;SDS011;55463;52.324;5.122;2022-09-09T12:01:57;8.18;;;2.25;;
67274;SDS011;55463;52.324;5.122;2022-09-09T12:12:07;6.00;;;2.10;;
67274;SDS011;55463;52.324;5.122;2022-09-09T12:14:57;8.45;;;2.40;;
67274;SDS011;55463;52.324;5.122;2022-09-09T12:17:25;6.35;;;2.40;;
67274;SDS011;55463;52.324;5.122;2022-09-09T12:22:48;8.80;;;2.17;;
67274;SDS011;55463;52.324;5.122;2022-09-09T12:28:11;8.52;;;2.40;;
67274;SDS011;55463;52.324;5.122;2022-09-09T12:33:17;4.88;;;2.30;;
67274;SDS011;55463;52.324;5.122;2022-09-09T12:35:44;7.85;;;2.53;;
67274;SDS011;55463;52.324;5.122;2022-09-09T12:38:17;6.00;;;2.30;;
67274;SDS011;55463;52.324;5.122;2022-09-09T12:40:56;8.00;;;2.22;;
67274;SDS011;55463;52.324;5.122;2022-09-09T12:43:24;12.38;;;2.85;;
67274;SDS011;55463;52.324;5.122;2022-09-09T12:45:51;5.47;;;2.60;;
67274;SDS011;55463;52.324;5.122;2022-09-09T12:48:23;7.22;;;2.40;;
67274;SDS011;55463;52.324;5.122;2022-09-09T12:50:55;6.32;;;2.67;;
67274;SDS011;55463;52.324;5.122;2022-09-09T12:53:39;5.10;;;2.53;;
67274;SDS011;55463;52.324;5.122;2022-09-09T12:56:06;7.53;;;2.45;;
67274;SDS011;55463;52.324;5.122;2022-09-09T12:58:36;4.53;;;2.50;;
67274;SDS011;55463;52.324;5.122;2022-09-09T13:01:03;8.13;;;2.40;;
67274;SDS011;55463;52.324;5.122;2022-09-09T13:03:30;4.70;;;2.55;;
67274;SDS011;55463;52.324;5.122;2022-09-09T13:05:57;6.57;;;2.38;;
67274;SDS011;55463;52.324;5.122;2022-09-09T13:08:34;6.70;;;2.78;;
67274;SDS011;55463;52.324;5.122;2022-09-09T13:11:00;6.20;;;2.70;;
67274;SDS011;55463;52.324;5.122;2022-09-09T13:13:36;6.13;;;2.60;;
67274;SDS011;55463;52.324;5.122;2022-09-09T13:16:03;6.75;;;2.80;;
67274;SDS011;55463;52.324;5.122;2022-09-09T13:18:33;6.75;;;2.47;;
67274;SDS011;55463;52.324;5.122;2022-09-09T13:21:03;9.55;;;2.70;;
67274;SDS011;55463;52.324;5.122;2022-09-09T13:23:32;6.15;;;2.55;;
67274;SDS011;55463;52.324;5.122;2022-09-09T13:26:04;7.53;;;2.90;;
67274;SDS011;55463;52.324;5.122;2022-09-09T13:28:33;5.70;;;2.70;;
67274;SDS011;55463;52.324;5.122;2022-09-09T13:31:00;8.25;;;2.85;;
67274;SDS011;55463;52.324;5.122;2022-09-09T13:33:31;6.43;;;2.30;;
67274;SDS011;55463;52.324;5.122;2022-09-09T13:36:07;6.80;;;2.85;;
67274;SDS011;55463;52.324;5.122;2022-09-09T13:38:36;8.20;;;2.42;;
67274;SDS011;55463;52.324;5.122;2022-09-09T13:41:08;9.00;;;2.60;;
67274;SDS011;55463;52.324;5.122;2022-09-09T13:43:38;10.70;;;2.90;;
67274;SDS011;55463;52.324;5.122;2022-09-09T13:49:17;9.73;;;2.70;;
67274;SDS011;55463;52.324;5.122;2022-09-09T13:51:46;14.02;;;3.22;;
67274;SDS011;55463;52.324;5.122;2022-09-09T13:54:14;10.50;;;2.97;;
67274;SDS011;55463;52.324;5.122;2022-09-09T13:56:41;10.57;;;3.40;;
67274;SDS011;55463;52.324;5.122;2022-09-09T13:59:11;8.40;;;2.90;;
67274;SDS011;55463;52.324;5.122;2022-09-09T14:01:41;6.32;;;2.90;;
67274;SDS011;55463;52.324;5.122;2022-09-09T14:04:07;9.52;;;3.30;;
67274;SDS011;55463;52.324;5.122;2022-09-09T14:06:34;6.45;;;3.20;;
67274;SDS011;55463;52.324;5.122;2022-09-09T14:09:02;7.45;;;3.05;;
67274;SDS011;55463;52.324;5.122;2022-09-09T14:11:28;8.60;;;3.33;;
67274;SDS011;55463;52.324;5.122;2022-09-09T14:13:53;8.30;;;3.17;;
67274;SDS011;55463;52.324;5.122;2022-09-09T14:16:18;8.23;;;3.00;;
67274;SDS011;55463;52.324;5.122;2022-09-09T14:18:44;5.63;;;2.90;;
67274;SDS011;55463;52.324;5.122;2022-09-09T14:21:10;6.88;;;2.45;;
67274;SDS011;55463;52.324;5.122;2022-09-09T14:23:36;7.57;;;2.72;;
67274;SDS011;55463;52.324;5.122;2022-09-09T14:26:03;11.18;;;3.38;;
67274;SDS011;55463;52.324;5.122;2022-09-09T14:28:29;11.65;;;2.72;;
67274;SDS011;55463;52.324;5.122;2022-09-09T14:30:54;5.43;;;2.50;;
67274;SDS011;55463;52.324;5.122;2022-09-09T14:33:20;4.38;;;2.33;;
67274;SDS011;55463;52.324;5.122;2022-09-09T14:35:46;12.25;;;2.72;;
67274;SDS011;55463;52.324;5.122;2022-09-09T14:38:11;28.77;;;2.75;;
67274;SDS011;55463;52.324;5.122;2022-09-09T14:40:37;7.15;;;2.40;;
67274;SDS011;55463;52.324;5.122;2022-09-09T14:43:03;6.57;;;2.22;;
67274;SDS011;55463;52.324;5.122;2022-09-09T14:45:30;5.78;;;2.65;;
67274;SDS011;55463;52.324;5.122;2022-09-09T14:47:56;7.68;;;2.40;;
67274;SDS011;55463;52.324;5.122;2022-09-09T14:50:22;6.00;;;2.33;;
67274;SDS011;55463;52.324;5.122;2022-09-09T14:52:48;4.15;;;2.50;;
67274;SDS011;55463;52.324;5.122;2022-09-09T14:55:14;7.63;;;2.22;;
67274;SDS011;55463;52.324;5.122;2022-09-09T14:57:40;7.80;;;2.53;;
67274;SDS011;55463;52.324;5.122;2022-09-09T15:00:06;6.32;;;2.53;;
67274;SDS011;55463;52.324;5.122;2022-09-09T15:02:33;6.85;;;2.60;;
67274;SDS011;55463;52.324;5.122;2022-09-09T15:04:59;8.60;;;2.90;;
67274;SDS011;55463;52.324;5.122;2022-09-09T15:07:25;6.82;;;2.55;;
67274;SDS011;55463;52.324;5.122;2022-09-09T15:09:52;5.03;;;2.70;;
67274;SDS011;55463;52.324;5.122;2022-09-09T15:12:18;5.38;;;2.70;;
67274;SDS011;55463;52.324;5.122;2022-09-09T15:14:46;9.00;;;3.05;;
67274;SDS011;55463;52.324;5.122;2022-09-09T15:17:13;6.03;;;2.55;;
67274;SDS011;55463;52.324;5.122;2022-09-09T15:19:38;3.22;;;1.55;;
67274;SDS011;55463;52.324;5.122;2022-09-09T15:22:04;4.38;;;1.60;;
67274;SDS011;55463;52.324;5.122;2022-09-09T15:24:34;1.50;;;1.33;;
67274;SDS011;55463;52.324;5.122;2022-09-09T15:27:00;5.00;;;1.85;;
67274;SDS011;55463;52.324;5.122;2022-09-09T15:29:26;1.42;;;1.20;;
67274;SDS011;55463;52.324;5.122;2022-09-09T15:31:55;2.95;;;1.38;;
67274;SDS011;55463;52.324;5.122;2022-09-09T15:34:21;2.33;;;1.20;;
67274;SDS011;55463;52.324;5.122;2022-09-09T15:36:46;2.58;;;1.27;;
67274;SDS011;55463;52.324;5.122;2022-09-09T15:39:13;2.25;;;1.38;;
67274;SDS011;55463;52.324;5.122;2022-09-09T15:41:43;3.55;;;1.40;;
67274;SDS011;55463;52.324;5.122;2022-09-09T15:44:12;4.25;;;1.77;;
67274;SDS011;55463;52.324;5.122;2022-09-09T15:46:39;3.67;;;1.30;;
67274;SDS011;55463;52.324;5.122;2022-09-09T15:49:07;3.47;;;1.50;;
67274;SDS011;55463;52.324;5.122;2022-09-09T15:52:00;1.20;;;1.20;;
67274;SDS011;55463;52.324;5.122;2022-09-09T15:54:31;3.42;;;1.50;;
67274;SDS011;55463;52.324;5.122;2022-09-09T15:56:58;3.92;;;1.70;;
67274;SDS011;55463;52.324;5.122;2022-09-09T15:59:26;2.40;;;1.50;;
67274;SDS011;55463;52.324;5.122;2022-09-09T16:01:54;7.35;;;1.98;;
67274;SDS011;55463;52.324;5.122;2022-09-09T16:04:36;5.63;;;1.73;;
67274;SDS011;55463;52.324;5.122;2022-09-09T16:07:03;10.10;;;2.10;;
67274;SDS011;55463;52.324;5.122;2022-09-09T16:09:30;5.43;;;1.80;;
67274;SDS011;55463;52.324;5.122;2022-09-09T16:11:57;4.93;;;1.50;;
67274;SDS011;55463;52.324;5.122;2022-09-09T16:16:59;5.43;;;1.75;;
67274;SDS011;55463;52.324;5.122;2022-09-09T16:19:25;5.10;;;1.95;;
67274;SDS011;55463;52.324;5.122;2022-09-09T16:21:51;5.95;;;2.00;;
67274;SDS011;55463;52.324;5.122;2022-09-09T16:24:17;6.68;;;2.03;;
67274;SDS011;55463;52.324;5.122;2022-09-09T16:26:56;6.00;;;2.50;;
67274;SDS011;55463;52.324;5.122;2022-09-09T16:29:21;6.97;;;2.60;;
67274;SDS011;55463;52.324;5.122;2022-09-09T16:31:49;8.13;;;2.28;;
67274;SDS011;55463;52.324;5.122;2022-09-09T16:34:15;5.53;;;2.55;;
67274;SDS011;55463;52.324;5.122;2022-09-09T16:36:43;7.63;;;2.13;;
67274;SDS011;55463;52.324;5.122;2022-09-09T16:39:10;18.20;;;3.10;;
67274;SDS011;55463;52.324;5.122;2022-09-09T16:41:37;16.90;;;3.67;;
67274;SDS011;55463;52.324;5.122;2022-09-09T16:44:05;12.60;;;4.03;;
67274;SDS011;55463;52.324;5.122;2022-09-09T16:46:33;8.60;;;2.95;;
67274;SDS011;55463;52.324;5.122;2022-09-09T16:49:01;6.13;;;2.50;;
67274;SDS011;55463;52.324;5.122;2022-09-09T16:51:28;7.75;;;2.72;;
67274;SDS011;55463;52.324;5.122;2022-09-09T16:53:57;4.72;;;2.60;;
67274;SDS011;55463;52.324;5.122;2022-09-09T16:56:25;8.57;;;2.47;;
67274;SDS011;55463;52.324;5.122;2022-09-09T16:58:58;5.72;;;2.60;;
67274;SDS011;55463;52.324;5.122;2022-09-09T17:01:26;8.60;;;2.45;;
67274;SDS011;55463;52.324;5.122;2022-09-09T17:03:57;4.28;;;1.60;;
67274;SDS011;55463;52.324;5.122;2022-09-09T17:06:23;4.03;;;1.30;;
67274;SDS011;55463;52.324;5.122;2022-09-09T17:08:53;2.55;;;1.25;;
67274;SDS011;55463;52.324;5.122;2022-09-09T17:11:20;4.65;;;1.60;;
67274;SDS011;55463;52.324;5.122;2022-09-09T17:13:47;3.13;;;1.40;;
67274;SDS011;55463;52.324;5.122;2022-09-09T17:16:14;5.28;;;1.60;;